sensor_id;sensor_type;location;lat;lon;timestamp;temperature;humidity
9167;DHT22;4618;48.818;9.088;2022-09-02T00:02:13;12.70;1.00
9167;DHT22;4618;48.818;9.088;2022-09-02T00:04:41;12.70;1.00
9167;DHT22;4618;48.818;9.088;2022-09-02T00:07:07;12.70;99.90
9167;DHT22;4618;48.818;9.088;2022-09-02T00:09:33;12.70;99.90
9167;DHT22;4618;48.818;9.088;2022-09-02T00:11:59;12.60;99.90
9167;DHT22;4618;48.818;9.088;2022-09-02T00:14:31;12.50;99.90
9167;DHT22;4618;48.818;9.088;2022-09-02T00:16:57;12.30;99.90
9167;DHT22;4618;48.818;9.088;2022-09-02T00:19:25;12.20;1.00
9167;DHT22;4618;48.818;9.088;2022-09-02T00:21:53;12.10;1.00
9167;DHT22;4618;48.818;9.088;2022-09-02T00:24:19;12.00;99.90
9167;DHT22;4618;48.818;9.088;2022-09-02T00:26:45;12.00;99.90
9167;DHT22;4618;48.818;9.088;2022-09-02T00:29:11;11.90;99.90
9167;DHT22;4618;48.818;9.088;2022-09-02T00:31:39;11.90;99.90
9167;DHT22;4618;48.818;9.088;2022-09-02T00:34:05;11.90;99.90
9167;DHT22;4618;48.818;9.088;2022-09-02T00:36:31;11.90;99.90
9167;DHT22;4618;48.818;9.088;2022-09-02T00:38:57;11.90;99.90
9167;DHT22;4618;48.818;9.088;2022-09-02T00:41:26;11.90;99.90
9167;DHT22;4618;48.818;9.088;2022-09-02T00:44:05;11.80;99.90
9167;DHT22;4618;48.818;9.088;2022-09-02T00:46:32;11.80;1.00
9167;DHT22;4618;48.818;9.088;2022-09-02T00:49:10;11.70;99.90
9167;DHT22;4618;48.818;9.088;2022-09-02T00:52:13;11.60;1.00
9167;DHT22;4618;48.818;9.088;2022-09-02T00:54:47;11.50;1.00
9167;DHT22;4618;48.818;9.088;2022-09-02T00:57:16;11.60;1.00
9167;DHT22;4618;48.818;9.088;2022-09-02T01:02:15;11.60;1.00
9167;DHT22;4618;48.818;9.088;2022-09-02T01:04:41;11.60;1.00
9167;DHT22;4618;48.818;9.088;2022-09-02T01:07:07;11.50;1.00
9167;DHT22;4618;48.818;9.088;2022-09-02T01:09:34;11.50;1.00
9167;DHT22;4618;48.818;9.088;2022-09-02T01:12:01;11.50;1.00
9167;DHT22;4618;48.818;9.088;2022-09-02T01:14:28;11.40;21.60
9167;DHT22;4618;48.818;9.088;2022-09-02T01:16:56;11.50;99.90
9167;DHT22;4618;48.818;9.088;2022-09-02T01:19:28;11.50;71.90
9167;DHT22;4618;48.818;9.088;2022-09-02T01:21:56;11.60;54.90
9167;DHT22;4618;48.818;9.088;2022-09-02T01:24:24;11.60;25.90
9167;DHT22;4618;48.818;9.088;2022-09-02T01:26:55;11.60;1.00
9167;DHT22;4618;48.818;9.088;2022-09-02T01:29:22;11.50;1.00
9167;DHT22;4618;48.818;9.088;2022-09-02T01:31:48;11.50;1.00
9167;DHT22;4618;48.818;9.088;2022-09-02T01:34:14;11.40;1.00
9167;DHT22;4618;48.818;9.088;2022-09-02T01:36:42;11.50;1.00
9167;DHT22;4618;48.818;9.088;2022-09-02T01:39:09;11.50;1.00
9167;DHT22;4618;48.818;9.088;2022-09-02T01:41:36;11.50;1.00
9167;DHT22;4618;48.818;9.088;2022-09-02T01:44:03;11.50;1.00
9167;DHT22;4618;48.818;9.088;2022-09-02T01:46:30;11.50;1.00
9167;DHT22;4618;48.818;9.088;2022-09-02T01:48:55;11.50;1.00
9167;DHT22;4618;48.818;9.088;2022-09-02T01:51:21;11.50;1.00
9167;DHT22;4618;48.818;9.088;2022-09-02T01:53:47;11.50;1.00
9167;DHT22;4618;48.818;9.088;2022-09-02T01:56:13;11.40;4.50
9167;DHT22;4618;48.818;9.088;2022-09-02T01:58:40;11.30;1.00
9167;DHT22;4618;48.818;9.088;2022-09-02T02:01:06;11.30;65.30
9167;DHT22;4618;48.818;9.088;2022-09-02T02:03:32;11.20;87.60
9167;DHT22;4618;48.818;9.088;2022-09-02T02:05:58;11.00;99.90
9167;DHT22;4618;48.818;9.088;2022-09-02T02:08:24;11.00;99.90
9167;DHT22;4618;48.818;9.088;2022-09-02T02:10:50;10.90;99.90
9167;DHT22;4618;48.818;9.088;2022-09-02T02:13:15;10.80;99.90
9167;DHT22;4618;48.818;9.088;2022-09-02T02:15:42;10.80;99.90
9167;DHT22;4618;48.818;9.088;2022-09-02T02:18:09;10.90;99.90
9167;DHT22;4618;48.818;9.088;2022-09-02T02:20:35;10.90;1.00
9167;DHT22;4618;48.818;9.088;2022-09-02T02:23:01;11.00;99.90
9167;DHT22;4618;48.818;9.088;2022-09-02T02:25:27;11.00;99.90
9167;DHT22;4618;48.818;9.088;2022-09-02T02:27:53;11.00;99.90
9167;DHT22;4618;48.818;9.088;2022-09-02T02:30:19;11.00;99.90
9167;DHT22;4618;48.818;9.088;2022-09-02T02:32:45;11.00;99.90
9167;DHT22;4618;48.818;9.088;2022-09-02T02:35:13;11.00;99.90
9167;DHT22;4618;48.818;9.088;2022-09-02T02:37:39;11.00;99.90
9167;DHT22;4618;48.818;9.088;2022-09-02T02:40:06;11.00;99.90
9167;DHT22;4618;48.818;9.088;2022-09-02T02:42:33;11.00;99.90
9167;DHT22;4618;48.818;9.088;2022-09-02T02:45:00;11.00;99.90
9167;DHT22;4618;48.818;9.088;2022-09-02T02:47:25;11.00;99.90
9167;DHT22;4618;48.818;9.088;2022-09-02T02:49:51;10.90;99.90
9167;DHT22;4618;48.818;9.088;2022-09-02T02:52:17;10.90;99.90
9167;DHT22;4618;48.818;9.088;2022-09-02T02:54:43;11.00;99.90
9167;DHT22;4618;48.818;9.088;2022-09-02T02:57:09;11.00;99.90
9167;DHT22;4618;48.818;9.088;2022-09-02T02:59:35;11.00;99.90
9167;DHT22;4618;48.818;9.088;2022-09-02T03:02:02;11.10;99.90
9167;DHT22;4618;48.818;9.088;2022-09-02T03:04:27;11.10;99.90
9167;DHT22;4618;48.818;9.088;2022-09-02T03:06:53;11.00;99.90
9167;DHT22;4618;48.818;9.088;2022-09-02T03:09:19;10.90;99.90
9167;DHT22;4618;48.818;9.088;2022-09-02T03:11:45;10.70;99.90
9167;DHT22;4618;48.818;9.088;2022-09-02T03:14:11;10.60;99.90
9167;DHT22;4618;48.818;9.088;2022-09-02T03:16:36;10.40;99.90
9167;DHT22;4618;48.818;9.088;2022-09-02T03:19:03;10.30;99.90
9167;DHT22;4618;48.818;9.088;2022-09-02T03:21:28;10.20;99.90
9167;DHT22;4618;48.818;9.088;2022-09-02T03:23:54;10.10;1.00
9167;DHT22;4618;48.818;9.088;2022-09-02T03:26:22;10.20;1.00
9167;DHT22;4618;48.818;9.088;2022-09-02T03:28:48;10.30;1.00
9167;DHT22;4618;48.818;9.088;2022-09-02T03:31:18;10.30;1.00
9167;DHT22;4618;48.818;9.088;2022-09-02T03:33:44;10.20;1.00
9167;DHT22;4618;48.818;9.088;2022-09-02T03:36:25;10.10;1.00
9167;DHT22;4618;48.818;9.088;2022-09-02T03:38:51;10.10;1.00
9167;DHT22;4618;48.818;9.088;2022-09-02T03:41:17;10.00;1.00
9167;DHT22;4618;48.818;9.088;2022-09-02T03:43:43;10.00;1.00
9167;DHT22;4618;48.818;9.088;2022-09-02T03:46:08;9.90;1.00
9167;DHT22;4618;48.818;9.088;2022-09-02T03:48:34;9.80;1.00
9167;DHT22;4618;48.818;9.088;2022-09-02T03:51:01;9.80;1.00
9167;DHT22;4618;48.818;9.088;2022-09-02T03:53:27;10.00;1.00
9167;DHT22;4618;48.818;9.088;2022-09-02T03:55:52;10.10;1.00
9167;DHT22;4618;48.818;9.088;2022-09-02T03:58:20;10.20;1.00
9167;DHT22;4618;48.818;9.088;2022-09-02T04:00:53;10.20;1.00
9167;DHT22;4618;48.818;9.088;2022-09-02T04:03:19;10.20;1.00
9167;DHT22;4618;48.818;9.088;2022-09-02T04:05:46;10.20;1.00
9167;DHT22;4618;48.818;9.088;2022-09-02T04:08:12;10.30;1.00
9167;DHT22;4618;48.818;9.088;2022-09-02T04:10:38;10.10;1.00
9167;DHT22;4618;48.818;9.088;2022-09-02T04:13:04;10.00;1.00
9167;DHT22;4618;48.818;9.088;2022-09-02T04:15:29;9.90;1.00
9167;DHT22;4618;48.818;9.088;2022-09-02T04:17:55;9.90;1.00
9167;DHT22;4618;48.818;9.088;2022-09-02T04:20:21;9.90;1.00
9167;DHT22;4618;48.818;9.088;2022-09-02T04:22:47;10.00;1.00
9167;DHT22;4618;48.818;9.088;2022-09-02T04:25:13;10.00;1.00
9167;DHT22;4618;48.818;9.088;2022-09-02T04:27:39;10.10;1.00
9167;DHT22;4618;48.818;9.088;2022-09-02T04:30:07;10.00;1.00
9167;DHT22;4618;48.818;9.088;2022-09-02T04:32:33;10.00;1.00
9167;DHT22;4618;48.818;9.088;2022-09-02T04:34:59;10.00;1.00
9167;DHT22;4618;48.818;9.088;2022-09-02T04:37:25;9.90;1.00
9167;DHT22;4618;48.818;9.088;2022-09-02T04:39:51;9.90;1.00
9167;DHT22;4618;48.818;9.088;2022-09-02T04:42:17;10.00;1.00
9167;DHT22;4618;48.818;9.088;2022-09-02T04:44:43;10.10;1.00
9167;DHT22;4618;48.818;9.088;2022-09-02T04:47:11;10.20;1.00
9167;DHT22;4618;48.818;9.088;2022-09-02T04:49:36;10.00;1.00
9167;DHT22;4618;48.818;9.088;2022-09-02T04:52:02;10.00;1.00
9167;DHT22;4618;48.818;9.088;2022-09-02T04:54:29;10.00;1.00
9167;DHT22;4618;48.818;9.088;2022-09-02T04:56:54;10.00;1.00
9167;DHT22;4618;48.818;9.088;2022-09-02T04:59:20;10.00;1.00
9167;DHT22;4618;48.818;9.088;2022-09-02T05:01:46;9.90;1.00
9167;DHT22;4618;48.818;9.088;2022-09-02T05:04:12;9.90;1.00
9167;DHT22;4618;48.818;9.088;2022-09-02T05:06:37;9.90;1.00
9167;DHT22;4618;48.818;9.088;2022-09-02T05:09:04;10.00;1.00
9167;DHT22;4618;48.818;9.088;2022-09-02T05:11:33;10.10;1.00
9167;DHT22;4618;48.818;9.088;2022-09-02T05:14:01;10.10;1.00
9167;DHT22;4618;48.818;9.088;2022-09-02T05:16:35;10.10;1.00
9167;DHT22;4618;48.818;9.088;2022-09-02T05:19:01;10.20;1.00
9167;DHT22;4618;48.818;9.088;2022-09-02T05:21:28;10.30;1.00
9167;DHT22;4618;48.818;9.088;2022-09-02T05:23:55;10.30;1.00
9167;DHT22;4618;48.818;9.088;2022-09-02T05:26:22;10.30;1.00
9167;DHT22;4618;48.818;9.088;2022-09-02T05:28:48;10.20;1.00
9167;DHT22;4618;48.818;9.088;2022-09-02T05:31:15;10.20;1.00
9167;DHT22;4618;48.818;9.088;2022-09-02T05:33:42;10.30;1.00
9167;DHT22;4618;48.818;9.088;2022-09-02T05:36:16;10.30;1.00
9167;DHT22;4618;48.818;9.088;2022-09-02T05:38:43;10.40;1.00
9167;DHT22;4618;48.818;9.088;2022-09-02T05:41:12;10.40;1.00
9167;DHT22;4618;48.818;9.088;2022-09-02T05:43:40;10.50;1.00
9167;DHT22;4618;48.818;9.088;2022-09-02T05:46:10;10.60;1.00
9167;DHT22;4618;48.818;9.088;2022-09-02T05:48:38;10.70;1.00
9167;DHT22;4618;48.818;9.088;2022-09-02T05:51:23;10.80;1.00
9167;DHT22;4618;48.818;9.088;2022-09-02T05:53:56;10.90;1.00
9167;DHT22;4618;48.818;9.088;2022-09-02T05:56:22;11.00;1.00
9167;DHT22;4618;48.818;9.088;2022-09-02T05:58:49;11.00;99.90
9167;DHT22;4618;48.818;9.088;2022-09-02T06:01:16;11.00;99.90
9167;DHT22;4618;48.818;9.088;2022-09-02T06:03:42;11.10;99.90
9167;DHT22;4618;48.818;9.088;2022-09-02T06:06:08;11.30;99.90
9167;DHT22;4618;48.818;9.088;2022-09-02T06:08:34;11.40;99.90
9167;DHT22;4618;48.818;9.088;2022-09-02T06:11:00;11.50;99.90
9167;DHT22;4618;48.818;9.088;2022-09-02T06:13:30;11.60;28.00
9167;DHT22;4618;48.818;9.088;2022-09-02T06:15:57;11.80;99.90
9167;DHT22;4618;48.818;9.088;2022-09-02T06:18:23;11.90;99.90
9167;DHT22;4618;48.818;9.088;2022-09-02T06:20:50;12.00;99.90
9167;DHT22;4618;48.818;9.088;2022-09-02T06:23:16;12.20;43.40
9167;DHT22;4618;48.818;9.088;2022-09-02T06:25:44;12.30;1.00
9167;DHT22;4618;48.818;9.088;2022-09-02T06:28:10;12.50;99.90
9167;DHT22;4618;48.818;9.088;2022-09-02T06:30:41;12.60;1.00
9167;DHT22;4618;48.818;9.088;2022-09-02T06:33:07;12.80;99.90
9167;DHT22;4618;48.818;9.088;2022-09-02T06:35:39;13.00;1.00
9167;DHT22;4618;48.818;9.088;2022-09-02T06:38:06;13.20;99.90
9167;DHT22;4618;48.818;9.088;2022-09-02T06:40:32;13.50;27.40
9167;DHT22;4618;48.818;9.088;2022-09-02T06:42:57;13.70;1.00
9167;DHT22;4618;48.818;9.088;2022-09-02T06:45:23;13.90;99.90
9167;DHT22;4618;48.818;9.088;2022-09-02T06:47:49;14.00;54.80
9167;DHT22;4618;48.818;9.088;2022-09-02T06:50:15;14.10;1.00
9167;DHT22;4618;48.818;9.088;2022-09-02T06:52:41;14.20;1.00
9167;DHT22;4618;48.818;9.088;2022-09-02T06:55:07;14.40;1.00
9167;DHT22;4618;48.818;9.088;2022-09-02T06:57:34;14.60;1.00
9167;DHT22;4618;48.818;9.088;2022-09-02T07:00:01;14.80;1.00
9167;DHT22;4618;48.818;9.088;2022-09-02T07:02:27;14.90;1.00
9167;DHT22;4618;48.818;9.088;2022-09-02T07:04:53;15.00;1.00
9167;DHT22;4618;48.818;9.088;2022-09-02T07:07:35;15.10;1.00
9167;DHT22;4618;48.818;9.088;2022-09-02T07:10:03;15.10;1.00
9167;DHT22;4618;48.818;9.088;2022-09-02T07:12:29;15.20;99.90
9167;DHT22;4618;48.818;9.088;2022-09-02T07:14:54;15.40;99.90
9167;DHT22;4618;48.818;9.088;2022-09-02T07:17:20;15.50;99.90
9167;DHT22;4618;48.818;9.088;2022-09-02T07:19:48;15.60;5.90
9167;DHT22;4618;48.818;9.088;2022-09-02T07:22:14;15.80;1.00
9167;DHT22;4618;48.818;9.088;2022-09-02T07:24:40;15.90;1.00
9167;DHT22;4618;48.818;9.088;2022-09-02T07:27:06;15.80;1.00
9167;DHT22;4618;48.818;9.088;2022-09-02T07:29:32;15.90;1.00
9167;DHT22;4618;48.818;9.088;2022-09-02T07:31:57;16.10;99.90
9167;DHT22;4618;48.818;9.088;2022-09-02T07:34:23;16.20;99.90
9167;DHT22;4618;48.818;9.088;2022-09-02T07:36:49;16.30;99.90
9167;DHT22;4618;48.818;9.088;2022-09-02T07:39:16;16.40;1.00
9167;DHT22;4618;48.818;9.088;2022-09-02T07:41:44;16.50;95.30
9167;DHT22;4618;48.818;9.088;2022-09-02T07:44:10;16.60;1.00
9167;DHT22;4618;48.818;9.088;2022-09-02T07:46:37;16.70;1.00
9167;DHT22;4618;48.818;9.088;2022-09-02T07:49:06;16.80;1.00
9167;DHT22;4618;48.818;9.088;2022-09-02T07:51:33;17.00;1.00
9167;DHT22;4618;48.818;9.088;2022-09-02T07:54:00;17.20;1.00
9167;DHT22;4618;48.818;9.088;2022-09-02T07:56:26;17.40;13.70
9167;DHT22;4618;48.818;9.088;2022-09-02T07:58:52;17.70;1.00
9167;DHT22;4618;48.818;9.088;2022-09-02T08:01:17;18.30;99.90
9167;DHT22;4618;48.818;9.088;2022-09-02T08:03:43;18.90;1.00
9167;DHT22;4618;48.818;9.088;2022-09-02T08:06:10;19.70;99.90
9167;DHT22;4618;48.818;9.088;2022-09-02T08:08:36;20.50;46.40
9167;DHT22;4618;48.818;9.088;2022-09-02T08:11:03;20.90;1.00
9167;DHT22;4618;48.818;9.088;2022-09-02T08:13:29;21.00;1.00
9167;DHT22;4618;48.818;9.088;2022-09-02T08:15:54;21.70;1.00
9167;DHT22;4618;48.818;9.088;2022-09-02T08:18:20;22.10;1.00
9167;DHT22;4618;48.818;9.088;2022-09-02T08:20:45;22.40;99.90
9167;DHT22;4618;48.818;9.088;2022-09-02T08:23:12;22.30;99.90
9167;DHT22;4618;48.818;9.088;2022-09-02T08:25:39;22.90;99.90
9167;DHT22;4618;48.818;9.088;2022-09-02T08:28:05;23.50;99.90
9167;DHT22;4618;48.818;9.088;2022-09-02T08:30:31;23.50;99.90
9167;DHT22;4618;48.818;9.088;2022-09-02T08:32:56;23.50;99.90
9167;DHT22;4618;48.818;9.088;2022-09-02T08:35:22;24.00;99.90
9167;DHT22;4618;48.818;9.088;2022-09-02T08:37:47;24.50;99.90
9167;DHT22;4618;48.818;9.088;2022-09-02T08:40:17;24.90;99.90
9167;DHT22;4618;48.818;9.088;2022-09-02T08:42:46;25.20;99.90
9167;DHT22;4618;48.818;9.088;2022-09-02T08:45:24;25.10;99.90
9167;DHT22;4618;48.818;9.088;2022-09-02T08:48:03;24.90;99.90
9167;DHT22;4618;48.818;9.088;2022-09-02T08:50:34;25.20;99.90
9167;DHT22;4618;48.818;9.088;2022-09-02T08:53:27;25.10;99.90
9167;DHT22;4618;48.818;9.088;2022-09-02T08:55:58;25.80;99.90
9167;DHT22;4618;48.818;9.088;2022-09-02T08:58:31;25.70;99.90
9167;DHT22;4618;48.818;9.088;2022-09-02T09:01:10;25.80;99.90
9167;DHT22;4618;48.818;9.088;2022-09-02T09:04:03;25.60;99.90
9167;DHT22;4618;48.818;9.088;2022-09-02T09:06:43;25.50;99.90
9167;DHT22;4618;48.818;9.088;2022-09-02T09:12:12;26.60;99.90
9167;DHT22;4618;48.818;9.088;2022-09-02T09:14:49;27.00;99.90
9167;DHT22;4618;48.818;9.088;2022-09-02T09:17:32;26.90;99.90
9167;DHT22;4618;48.818;9.088;2022-09-02T09:20:17;26.30;99.90
9167;DHT22;4618;48.818;9.088;2022-09-02T09:22:44;26.00;99.90
9167;DHT22;4618;48.818;9.088;2022-09-02T09:25:14;26.30;99.90
9167;DHT22;4618;48.818;9.088;2022-09-02T09:27:40;25.90;99.90
9167;DHT22;4618;48.818;9.088;2022-09-02T09:30:07;25.40;99.90
9167;DHT22;4618;48.818;9.088;2022-09-02T09:32:40;25.40;99.90
9167;DHT22;4618;48.818;9.088;2022-09-02T09:35:11;25.40;99.90
9167;DHT22;4618;48.818;9.088;2022-09-02T09:37:41;25.70;99.90
9167;DHT22;4618;48.818;9.088;2022-09-02T09:45:37;26.30;99.90
9167;DHT22;4618;48.818;9.088;2022-09-02T09:51:10;26.70;99.90
9167;DHT22;4618;48.818;9.088;2022-09-02T09:53:37;26.60;99.90
9167;DHT22;4618;48.818;9.088;2022-09-02T10:01:31;27.50;99.90
9167;DHT22;4618;48.818;9.088;2022-09-02T10:04:07;27.80;99.90
9167;DHT22;4618;48.818;9.088;2022-09-02T10:06:42;28.00;99.90
9167;DHT22;4618;48.818;9.088;2022-09-02T10:14:30;27.90;99.90
9167;DHT22;4618;48.818;9.088;2022-09-02T10:19:39;28.70;99.90
9167;DHT22;4618;48.818;9.088;2022-09-02T10:31:12;28.80;99.90
9167;DHT22;4618;48.818;9.088;2022-09-02T10:34:11;28.80;99.90
9167;DHT22;4618;48.818;9.088;2022-09-02T10:37:18;29.30;99.90
9167;DHT22;4618;48.818;9.088;2022-09-02T10:45:23;29.40;99.90
9167;DHT22;4618;48.818;9.088;2022-09-02T10:48:26;29.90;99.90
9167;DHT22;4618;48.818;9.088;2022-09-02T10:51:14;29.00;99.90
9167;DHT22;4618;48.818;9.088;2022-09-02T10:54:06;30.00;99.90
9167;DHT22;4618;48.818;9.088;2022-09-02T10:56:48;30.20;99.90
9167;DHT22;4618;48.818;9.088;2022-09-02T10:59:47;29.60;99.90
9167;DHT22;4618;48.818;9.088;2022-09-02T11:02:30;29.20;99.90
9167;DHT22;4618;48.818;9.088;2022-09-02T11:07:37;30.90;99.90
9167;DHT22;4618;48.818;9.088;2022-09-02T11:13:16;29.70;99.90
9167;DHT22;4618;48.818;9.088;2022-09-02T11:15:52;30.30;99.90
9167;DHT22;4618;48.818;9.088;2022-09-02T11:18:32;31.10;99.90
9167;DHT22;4618;48.818;9.088;2022-09-02T11:21:18;31.20;97.90
9167;DHT22;4618;48.818;9.088;2022-09-02T11:26:25;31.90;83.70
9167;DHT22;4618;48.818;9.088;2022-09-02T11:29:00;31.50;96.80
9167;DHT22;4618;48.818;9.088;2022-09-02T11:31:31;31.40;95.10
9167;DHT22;4618;48.818;9.088;2022-09-02T11:36:38;32.50;95.30
9167;DHT22;4618;48.818;9.088;2022-09-02T11:39:10;33.10;91.30
9167;DHT22;4618;48.818;9.088;2022-09-02T11:47:27;31.10;91.30
9167;DHT22;4618;48.818;9.088;2022-09-02T11:55:56;32.10;86.40
9167;DHT22;4618;48.818;9.088;2022-09-02T11:58:44;32.20;85.90
9167;DHT22;4618;48.818;9.088;2022-09-02T12:09:48;33.10;78.50
9167;DHT22;4618;48.818;9.088;2022-09-02T12:17:34;35.10;68.70
9167;DHT22;4618;48.818;9.088;2022-09-02T12:20:06;34.30;65.10
9167;DHT22;4618;48.818;9.088;2022-09-02T12:22:35;34.10;66.50
9167;DHT22;4618;48.818;9.088;2022-09-02T12:25:04;34.20;63.00
9167;DHT22;4618;48.818;9.088;2022-09-02T12:27:49;32.80;63.00
9167;DHT22;4618;48.818;9.088;2022-09-02T12:31:07;32.80;65.70
9167;DHT22;4618;48.818;9.088;2022-09-02T12:33:37;33.70;61.00
9167;DHT22;4618;48.818;9.088;2022-09-02T12:36:05;33.50;66.30
9167;DHT22;4618;48.818;9.088;2022-09-02T12:38:36;33.90;86.20
9167;DHT22;4618;48.818;9.088;2022-09-02T12:49:26;33.00;56.20
9167;DHT22;4618;48.818;9.088;2022-09-02T12:52:02;32.40;57.70
9167;DHT22;4618;48.818;9.088;2022-09-02T12:54:46;32.40;56.10
9167;DHT22;4618;48.818;9.088;2022-09-02T12:57:17;33.10;57.80
9167;DHT22;4618;48.818;9.088;2022-09-02T12:59:45;34.00;54.10
9167;DHT22;4618;48.818;9.088;2022-09-02T13:02:30;35.10;51.20
9167;DHT22;4618;48.818;9.088;2022-09-02T13:11:28;33.20;47.60
9167;DHT22;4618;48.818;9.088;2022-09-02T13:33:04;32.90;47.60
9167;DHT22;4618;48.818;9.088;2022-09-02T13:35:31;33.00;47.10
9167;DHT22;4618;48.818;9.088;2022-09-02T13:37:58;32.80;45.10
9167;DHT22;4618;48.818;9.088;2022-09-02T13:40:30;32.50;45.60
9167;DHT22;4618;48.818;9.088;2022-09-02T13:43:03;31.70;45.70
9167;DHT22;4618;48.818;9.088;2022-09-02T13:45:32;32.40;46.00
9167;DHT22;4618;48.818;9.088;2022-09-02T13:48:01;33.50;44.40
9167;DHT22;4618;48.818;9.088;2022-09-02T13:50:31;33.70;42.30
9167;DHT22;4618;48.818;9.088;2022-09-02T13:53:00;33.70;41.50
9167;DHT22;4618;48.818;9.088;2022-09-02T13:55:27;33.20;44.90
9167;DHT22;4618;48.818;9.088;2022-09-02T14:00:54;34.50;41.00
9167;DHT22;4618;48.818;9.088;2022-09-02T14:03:21;34.50;39.00
9167;DHT22;4618;48.818;9.088;2022-09-02T14:05:52;33.50;50.70
9167;DHT22;4618;48.818;9.088;2022-09-02T14:08:22;32.60;40.80
9167;DHT22;4618;48.818;9.088;2022-09-02T14:10:49;33.70;39.80
9167;DHT22;4618;48.818;9.088;2022-09-02T14:13:18;33.90;37.70
9167;DHT22;4618;48.818;9.088;2022-09-02T14:15:44;33.20;38.20
9167;DHT22;4618;48.818;9.088;2022-09-02T14:18:21;32.70;38.90
9167;DHT22;4618;48.818;9.088;2022-09-02T14:20:57;32.90;38.20
9167;DHT22;4618;48.818;9.088;2022-09-02T14:23:23;32.90;37.30
9167;DHT22;4618;48.818;9.088;2022-09-02T14:25:54;33.10;38.10
9167;DHT22;4618;48.818;9.088;2022-09-02T14:28:25;33.50;37.50
9167;DHT22;4618;48.818;9.088;2022-09-02T14:33:43;34.00;34.90
9167;DHT22;4618;48.818;9.088;2022-09-02T14:38:53;33.70;35.50
9167;DHT22;4618;48.818;9.088;2022-09-02T14:41:29;33.40;37.00
9167;DHT22;4618;48.818;9.088;2022-09-02T14:43:59;33.20;34.40
9167;DHT22;4618;48.818;9.088;2022-09-02T14:46:35;31.70;34.30
9167;DHT22;4618;48.818;9.088;2022-09-02T14:49:05;30.30;37.20
9167;DHT22;4618;48.818;9.088;2022-09-02T14:51:58;30.30;39.00
9167;DHT22;4618;48.818;9.088;2022-09-02T14:54:48;30.80;39.10
9167;DHT22;4618;48.818;9.088;2022-09-02T14:57:34;31.40;39.50
9167;DHT22;4618;48.818;9.088;2022-09-02T15:00:10;31.40;37.70
9167;DHT22;4618;48.818;9.088;2022-09-02T15:02:41;31.30;39.10
9167;DHT22;4618;48.818;9.088;2022-09-02T15:05:09;31.60;38.30
9167;DHT22;4618;48.818;9.088;2022-09-02T15:07:37;31.80;39.20
9167;DHT22;4618;48.818;9.088;2022-09-02T15:10:03;32.20;37.50
9167;DHT22;4618;48.818;9.088;2022-09-02T15:12:36;32.30;38.50
9167;DHT22;4618;48.818;9.088;2022-09-02T15:15:03;32.20;36.60
9167;DHT22;4618;48.818;9.088;2022-09-02T15:17:29;31.50;37.30
9167;DHT22;4618;48.818;9.088;2022-09-02T15:19:55;31.80;37.90
9167;DHT22;4618;48.818;9.088;2022-09-02T15:22:21;32.50;56.20
9167;DHT22;4618;48.818;9.088;2022-09-02T15:24:47;32.20;34.30
9167;DHT22;4618;48.818;9.088;2022-09-02T15:27:14;31.60;36.00
9167;DHT22;4618;48.818;9.088;2022-09-02T15:29:40;30.90;35.30
9167;DHT22;4618;48.818;9.088;2022-09-02T15:32:06;31.10;36.10
9167;DHT22;4618;48.818;9.088;2022-09-02T15:34:32;31.00;37.10
9167;DHT22;4618;48.818;9.088;2022-09-02T15:37:01;30.80;37.40
9167;DHT22;4618;48.818;9.088;2022-09-02T15:39:27;30.50;37.90
9167;DHT22;4618;48.818;9.088;2022-09-02T15:41:53;30.00;36.90
9167;DHT22;4618;48.818;9.088;2022-09-02T15:44:20;29.60;37.10
9167;DHT22;4618;48.818;9.088;2022-09-02T15:46:47;28.90;40.00
9167;DHT22;4618;48.818;9.088;2022-09-02T15:49:14;28.40;40.10
9167;DHT22;4618;48.818;9.088;2022-09-02T15:51:44;28.80;41.50
9167;DHT22;4618;48.818;9.088;2022-09-02T15:54:12;28.90;41.70
9167;DHT22;4618;48.818;9.088;2022-09-02T15:56:40;28.30;42.50
9167;DHT22;4618;48.818;9.088;2022-09-02T15:59:09;27.90;43.40
9167;DHT22;4618;48.818;9.088;2022-09-02T16:01:38;27.50;44.60
9167;DHT22;4618;48.818;9.088;2022-09-02T16:04:05;27.30;45.60
9167;DHT22;4618;48.818;9.088;2022-09-02T16:06:32;26.90;45.40
9167;DHT22;4618;48.818;9.088;2022-09-02T16:08:59;26.50;48.10
9167;DHT22;4618;48.818;9.088;2022-09-02T16:11:24;26.10;49.00
9167;DHT22;4618;48.818;9.088;2022-09-02T16:13:50;25.70;52.50
9167;DHT22;4618;48.818;9.088;2022-09-02T16:16:17;25.50;54.50
9167;DHT22;4618;48.818;9.088;2022-09-02T16:18:43;25.50;55.90
9167;DHT22;4618;48.818;9.088;2022-09-02T16:21:11;25.50;56.70
9167;DHT22;4618;48.818;9.088;2022-09-02T16:23:37;25.40;57.60
9167;DHT22;4618;48.818;9.088;2022-09-02T16:28:39;25.20;60.20
9167;DHT22;4618;48.818;9.088;2022-09-02T16:31:06;25.00;60.40
9167;DHT22;4618;48.818;9.088;2022-09-02T16:33:32;24.80;64.20
9167;DHT22;4618;48.818;9.088;2022-09-02T16:35:58;24.40;64.40
9167;DHT22;4618;48.818;9.088;2022-09-02T16:38:24;24.40;67.70
9167;DHT22;4618;48.818;9.088;2022-09-02T16:40:54;24.40;66.10
9167;DHT22;4618;48.818;9.088;2022-09-02T16:43:20;24.30;69.10
9167;DHT22;4618;48.818;9.088;2022-09-02T16:45:51;24.40;67.70
9167;DHT22;4618;48.818;9.088;2022-09-02T16:48:18;24.60;68.50
9167;DHT22;4618;48.818;9.088;2022-09-02T16:50:45;25.00;69.00
9167;DHT22;4618;48.818;9.088;2022-09-02T16:53:11;25.40;65.00
9167;DHT22;4618;48.818;9.088;2022-09-02T16:55:41;25.70;63.80
9167;DHT22;4618;48.818;9.088;2022-09-02T16:58:07;26.20;62.90
9167;DHT22;4618;48.818;9.088;2022-09-02T17:00:36;26.40;61.10
9167;DHT22;4618;48.818;9.088;2022-09-02T17:03:07;26.20;61.30
9167;DHT22;4618;48.818;9.088;2022-09-02T17:05:34;25.70;63.70
9167;DHT22;4618;48.818;9.088;2022-09-02T17:07:59;25.60;62.90
9167;DHT22;4618;48.818;9.088;2022-09-02T17:10:30;25.30;63.00
9167;DHT22;4618;48.818;9.088;2022-09-02T17:12:56;24.90;65.50
9167;DHT22;4618;48.818;9.088;2022-09-02T17:15:23;24.50;65.50
9167;DHT22;4618;48.818;9.088;2022-09-02T17:17:48;24.10;66.10
9167;DHT22;4618;48.818;9.088;2022-09-02T17:20:14;23.60;68.60
9167;DHT22;4618;48.818;9.088;2022-09-02T17:22:40;23.50;71.70
9167;DHT22;4618;48.818;9.088;2022-09-02T17:25:06;23.30;72.60
9167;DHT22;4618;48.818;9.088;2022-09-02T17:27:32;23.10;73.70
9167;DHT22;4618;48.818;9.088;2022-09-02T17:29:58;23.00;74.80
9167;DHT22;4618;48.818;9.088;2022-09-02T17:32:27;22.80;78.10
9167;DHT22;4618;48.818;9.088;2022-09-02T17:34:53;22.60;80.40
9167;DHT22;4618;48.818;9.088;2022-09-02T17:37:19;22.20;85.20
9167;DHT22;4618;48.818;9.088;2022-09-02T17:39:47;22.00;88.70
9167;DHT22;4618;48.818;9.088;2022-09-02T17:42:13;21.80;92.20
9167;DHT22;4618;48.818;9.088;2022-09-02T17:44:39;21.80;92.90
9167;DHT22;4618;48.818;9.088;2022-09-02T17:47:10;21.50;92.10
9167;DHT22;4618;48.818;9.088;2022-09-02T17:49:37;21.40;94.60
9167;DHT22;4618;48.818;9.088;2022-09-02T17:52:04;21.40;96.50
9167;DHT22;4618;48.818;9.088;2022-09-02T17:54:32;21.40;98.90
9167;DHT22;4618;48.818;9.088;2022-09-02T17:57:02;21.30;99.00
9167;DHT22;4618;48.818;9.088;2022-09-02T17:59:50;21.10;99.90
9167;DHT22;4618;48.818;9.088;2022-09-02T18:07:56;20.40;99.90
9167;DHT22;4618;48.818;9.088;2022-09-02T18:13:06;20.20;99.90
9167;DHT22;4618;48.818;9.088;2022-09-02T18:18:21;20.10;99.90
9167;DHT22;4618;48.818;9.088;2022-09-02T18:20:52;19.90;99.90
9167;DHT22;4618;48.818;9.088;2022-09-02T18:28:44;19.90;99.90
9167;DHT22;4618;48.818;9.088;2022-09-02T18:31:43;19.80;99.90
9167;DHT22;4618;48.818;9.088;2022-09-02T18:45:14;19.30;99.90
9167;DHT22;4618;48.818;9.088;2022-09-02T18:47:53;19.30;99.90
9167;DHT22;4618;48.818;9.088;2022-09-02T18:50:24;19.20;99.90
9167;DHT22;4618;48.818;9.088;2022-09-02T18:52:51;19.20;99.90